sensor_id;sensor_type;location;lat;lon;timestamp;pressure;altitude;pressure_sealevel;temperature;humidity
34921;BME280;21128;50.016;20.002;2023-04-16T00:00:37;98492.05;;;6.11;100.00
34921;BME280;21128;50.016;20.002;2023-04-16T00:03:24;98490.17;;;6.02;100.00
34921;BME280;21128;50.016;20.002;2023-04-16T00:05:51;98487.95;;;5.97;100.00
34921;BME280;21128;50.016;20.002;2023-04-16T00:08:22;98487.95;;;5.97;100.00
34921;BME280;21128;50.016;20.002;2023-04-16T00:10:51;98493.16;;;5.97;100.00
34921;BME280;21128;50.016;20.002;2023-04-16T00:13:19;98489.82;;;5.95;100.00
34921;BME280;21128;50.016;20.002;2023-04-16T00:15:46;98499.42;;;5.95;100.00
34921;BME280;21128;50.016;20.002;2023-04-16T00:18:13;98495.03;;;5.95;100.00
34921;BME280;21128;50.016;20.002;2023-04-16T00:20:40;98498.59;;;5.94;100.00
34921;BME280;21128;50.016;20.002;2023-04-16T00:23:07;98495.99;;;5.94;100.00
34921;BME280;21128;50.016;20.002;2023-04-16T00:25:34;98499.42;;;5.95;100.00
34921;BME280;21128;50.016;20.002;2023-04-16T00:28:00;98496.12;;;5.92;100.00
34921;BME280;21128;50.016;20.002;2023-04-16T00:30:27;98503.94;;;5.92;100.00
34921;BME280;21128;50.016;20.002;2023-04-16T00:32:55;98516.03;;;5.93;100.00
34921;BME280;21128;50.016;20.002;2023-04-16T00:35:22;98516.03;;;5.93;100.00
34921;BME280;21128;50.016;20.002;2023-04-16T00:37:48;98518.63;;;5.93;100.00
34921;BME280;21128;50.016;20.002;2023-04-16T00:40:15;98526.45;;;5.93;100.00
34921;BME280;21128;50.016;20.002;2023-04-16T00:42:44;98527.41;;;5.92;100.00
34921;BME280;21128;50.016;20.002;2023-04-16T00:45:11;98532.63;;;5.92;100.00
34921;BME280;21128;50.016;20.002;2023-04-16T00:47:38;98536.19;;;5.91;100.00
34921;BME280;21128;50.016;20.002;2023-04-16T00:50:06;98542.36;;;5.90;100.00
34921;BME280;21128;50.016;20.002;2023-04-16T00:52:34;98546.80;;;5.88;100.00
34921;BME280;21128;50.016;20.002;2023-04-16T00:55:01;98552.97;;;5.87;100.00
34921;BME280;21128;50.016;20.002;2023-04-16T00:57:29;98551.45;;;5.85;100.00
34921;BME280;21128;50.016;20.002;2023-04-16T00:59:56;98553.22;;;5.84;100.00
34921;BME280;21128;50.016;20.002;2023-04-16T01:02:24;98558.44;;;5.84;100.00
34921;BME280;21128;50.016;20.002;2023-04-16T01:04:51;98555.95;;;5.83;100.00
34921;BME280;21128;50.016;20.002;2023-04-16T01:07:18;98559.39;;;5.83;100.00
34921;BME280;21128;50.016;20.002;2023-04-16T01:09:45;98568.75;;;5.86;100.00
34921;BME280;21128;50.016;20.002;2023-04-16T01:12:12;98566.27;;;5.84;100.00
34921;BME280;21128;50.016;20.002;2023-04-16T01:14:39;98565.44;;;5.84;100.00
34921;BME280;21128;50.016;20.002;2023-04-16T01:17:06;98563.78;;;5.83;100.00
34921;BME280;21128;50.016;20.002;2023-04-16T01:19:33;98568.16;;;5.82;100.00
34921;BME280;21128;50.016;20.002;2023-04-16T01:22:04;98553.23;;;5.73;100.00
34921;BME280;21128;50.016;20.002;2023-04-16T01:24:32;98556.31;;;5.67;100.00
34921;BME280;21128;50.016;20.002;2023-04-16T01:26:59;98555.82;;;5.62;100.00
34921;BME280;21128;50.016;20.002;2023-04-16T01:29:26;98557.84;;;5.58;100.00
34921;BME280;21128;50.016;20.002;2023-04-16T01:31:53;98555.36;;;5.57;100.00
34921;BME280;21128;50.016;20.002;2023-04-16T01:34:20;98561.52;;;5.56;100.00
34921;BME280;21128;50.016;20.002;2023-04-16T01:36:47;98552.14;;;5.53;100.00
34921;BME280;21128;50.016;20.002;2023-04-16T01:39:14;98555.58;;;5.54;100.00
34921;BME280;21128;50.016;20.002;2023-04-16T01:41:42;98556.65;;;5.51;100.00
34921;BME280;21128;50.016;20.002;2023-04-16T01:44:09;98558.67;;;5.48;100.00
34921;BME280;21128;50.016;20.002;2023-04-16T01:46:36;98550.36;;;5.43;100.00
34921;BME280;21128;50.016;20.002;2023-04-16T01:49:04;98548.95;;;5.39;100.00
34921;BME280;21128;50.016;20.002;2023-04-16T01:51:32;98547.27;;;5.37;100.00
34921;BME280;21128;50.016;20.002;2023-04-16T01:54:00;98541.34;;;5.35;100.00
34921;BME280;21128;50.016;20.002;2023-04-16T01:56:27;98547.75;;;5.31;100.00
34921;BME280;21128;50.016;20.002;2023-04-16T01:58:54;98556.73;;;5.27;100.00
34921;BME280;21128;50.016;20.002;2023-04-16T02:01:21;98553.87;;;5.19;100.00
34921;BME280;21128;50.016;20.002;2023-04-16T02:03:48;98550.80;;;5.14;100.00
34921;BME280;21128;50.016;20.002;2023-04-16T02:06:16;98544.02;;;5.12;100.00
34921;BME280;21128;50.016;20.002;2023-04-16T02:08:43;98550.80;;;5.14;100.00
34921;BME280;21128;50.016;20.002;2023-04-16T02:11:10;98552.45;;;5.15;100.00
34921;BME280;21128;50.016;20.002;2023-04-16T02:13:37;98558.38;;;5.17;100.00
34921;BME280;21128;50.016;20.002;2023-04-16T02:16:04;98554.70;;;5.20;100.00
34921;BME280;21128;50.016;20.002;2023-04-16T02:18:31;98556.84;;;5.26;100.00
34921;BME280;21128;50.016;20.002;2023-04-16T02:20:58;98561.11;;;5.27;100.00
34921;BME280;21128;50.016;20.002;2023-04-16T02:23:26;98566.11;;;5.30;100.00
34921;BME280;21128;50.016;20.002;2023-04-16T02:25:53;98564.33;;;5.30;100.00
34921;BME280;21128;50.016;20.002;2023-04-16T02:28:20;98568.59;;;5.31;100.00
34921;BME280;21128;50.016;20.002;2023-04-16T02:30:47;98570.13;;;5.34;100.00
34921;BME280;21128;50.016;20.002;2023-04-16T02:33:14;98568.35;;;5.34;100.00
34921;BME280;21128;50.016;20.002;2023-04-16T02:35:41;98573.44;;;5.36;100.00
34921;BME280;21128;50.016;20.002;2023-04-16T02:38:08;98565.63;;;5.36;100.00
34921;BME280;21128;50.016;20.002;2023-04-16T02:40:35;98576.17;;;5.34;100.00
34921;BME280;21128;50.016;20.002;2023-04-16T02:43:02;98578.77;;;5.34;100.00
34921;BME280;21128;50.016;20.002;2023-04-16T02:45:29;98578.89;;;5.33;100.00
34921;BME280;21128;50.016;20.002;2023-04-16T02:47:57;98590.39;;;5.30;100.00
34921;BME280;21128;50.016;20.002;2023-04-16T02:50:25;98592.99;;;5.30;100.00
34921;BME280;21128;50.016;20.002;2023-04-16T02:52:52;98593.81;;;5.31;100.00
34921;BME280;21128;50.016;20.002;2023-04-16T02:55:19;98587.78;;;5.30;100.00
34921;BME280;21128;50.016;20.002;2023-04-16T02:57:46;98593.81;;;5.31;100.00
34921;BME280;21128;50.016;20.002;2023-04-16T03:00:13;98593.91;;;5.29;100.00
34921;BME280;21128;50.016;20.002;2023-04-16T03:02:40;98595.69;;;5.29;100.00
34921;BME280;21128;50.016;20.002;2023-04-16T03:05:08;98601.72;;;5.29;100.00
34921;BME280;21128;50.016;20.002;2023-04-16T03:07:36;98601.84;;;5.28;100.00
34921;BME280;21128;50.016;20.002;2023-04-16T03:10:05;98607.88;;;5.28;100.00
34921;BME280;21128;50.016;20.002;2023-04-16T03:12:33;98610.48;;;5.28;100.00
34921;BME280;21128;50.016;20.002;2023-04-16T03:15:00;98617.36;;;5.29;100.00
34921;BME280;21128;50.016;20.002;2023-04-16T03:17:27;98611.31;;;5.29;100.00
34921;BME280;21128;50.016;20.002;2023-04-16T03:19:53;98614.04;;;5.27;100.00
34921;BME280;21128;50.016;20.002;2023-04-16T03:22:21;98611.55;;;5.26;100.00
34921;BME280;21128;50.016;20.002;2023-04-16T03:24:48;98614.28;;;5.24;100.00
34921;BME280;21128;50.016;20.002;2023-04-16T03:27:15;98615.94;;;5.25;100.00
34921;BME280;21128;50.016;20.002;2023-04-16T03:29:42;98622.80;;;5.26;100.00
34921;BME280;21128;50.016;20.002;2023-04-16T03:32:09;98625.29;;;5.28;100.00
34921;BME280;21128;50.016;20.002;2023-04-16T03:34:38;98634.67;;;5.30;100.00
34921;BME280;21128;50.016;20.002;2023-04-16T03:37:05;98637.28;;;5.30;100.00
34921;BME280;21128;50.016;20.002;2023-04-16T03:39:32;98638.11;;;5.31;100.00
34921;BME280;21128;50.016;20.002;2023-04-16T03:42:00;98638.94;;;5.31;100.00
34921;BME280;21128;50.016;20.002;2023-04-16T03:44:28;98641.55;;;5.31;100.00
34921;BME280;21128;50.016;20.002;2023-04-16T03:46:55;98653.63;;;5.32;100.00
34921;BME280;21128;50.016;20.002;2023-04-16T03:49:22;98646.75;;;5.31;100.00
34921;BME280;21128;50.016;20.002;2023-04-16T03:51:49;98657.38;;;5.28;100.00
34921;BME280;21128;50.016;20.002;2023-04-16T03:54:17;98661.88;;;5.26;100.00
34921;BME280;21128;50.016;20.002;2023-04-16T03:56:44;98648.03;;;5.26;100.00
34921;BME280;21128;50.016;20.002;2023-04-16T03:59:11;98659.63;;;5.22;100.00
34921;BME280;21128;50.016;20.002;2023-04-16T04:01:38;98659.01;;;5.18;100.00
34921;BME280;21128;50.016;20.002;2023-04-16T04:04:05;98658.30;;;5.16;100.00
34921;BME280;21128;50.016;20.002;2023-04-16T04:06:32;98667.17;;;5.14;100.00
34921;BME280;21128;50.016;20.002;2023-04-16T04:08:59;98666.43;;;5.12;100.00
34921;BME280;21128;50.016;20.002;2023-04-16T04:11:26;98666.55;;;5.10;100.00
34921;BME280;21128;50.016;20.002;2023-04-16T04:13:53;98667.37;;;5.11;100.00
34921;BME280;21128;50.016;20.002;2023-04-16T04:16:20;98680.91;;;5.16;100.00
34921;BME280;21128;50.016;20.002;2023-04-16T04:18:47;98686.52;;;5.22;100.00
34921;BME280;21128;50.016;20.002;2023-04-16T04:21:14;98690.30;;;5.29;100.00
34921;BME280;21128;50.016;20.002;2023-04-16T04:23:41;98696.73;;;5.36;100.00
34921;BME280;21128;50.016;20.002;2023-04-16T04:26:09;98702.33;;;5.43;100.00
34921;BME280;21128;50.016;20.002;2023-04-16T04:28:36;98709.34;;;5.54;100.00
34921;BME280;21128;50.016;20.002;2023-04-16T04:31:03;98712.84;;;5.65;100.00
34921;BME280;21128;50.016;20.002;2023-04-16T04:33:30;98713.56;;;5.79;100.00
34921;BME280;21128;50.016;20.002;2023-04-16T04:35:57;98714.23;;;5.93;100.00
34921;BME280;21128;50.016;20.002;2023-04-16T04:38:24;98720.28;;;6.05;100.00
34921;BME280;21128;50.016;20.002;2023-04-16T04:40:51;98720.90;;;6.09;100.00
34921;BME280;21128;50.016;20.002;2023-04-16T04:43:19;98715.44;;;6.12;100.00
34921;BME280;21128;50.016;20.002;2023-04-16T04:45:46;98717.58;;;6.18;100.00
34921;BME280;21128;50.016;20.002;2023-04-16T04:48:15;98710.70;;;6.28;100.00
34921;BME280;21128;50.016;20.002;2023-04-16T04:50:43;98713.43;;;6.38;100.00
34921;BME280;21128;50.016;20.002;2023-04-16T04:53:11;98718.55;;;6.51;100.00
34921;BME280;21128;50.016;20.002;2023-04-16T04:55:40;98716.17;;;6.59;100.00
34921;BME280;21128;50.016;20.002;2023-04-16T04:58:07;98720.80;;;6.66;100.00
34921;BME280;21128;50.016;20.002;2023-04-16T05:00:35;98724.81;;;6.82;100.00
34921;BME280;21128;50.016;20.002;2023-04-16T05:03:04;98724.92;;;6.91;100.00
34921;BME280;21128;50.016;20.002;2023-04-16T05:05:32;98732.94;;;7.11;100.00
34921;BME280;21128;50.016;20.002;2023-04-16T05:07:58;98731.45;;;7.29;100.00
34921;BME280;21128;50.016;20.002;2023-04-16T05:10:26;98730.92;;;7.46;100.00
34921;BME280;21128;50.016;20.002;2023-04-16T05:12:53;98747.28;;;7.59;100.00
34921;BME280;21128;50.016;20.002;2023-04-16T05:15:20;98742.45;;;7.76;100.00
34921;BME280;21128;50.016;20.002;2023-04-16T05:17:47;98743.08;;;7.89;100.00
34921;BME280;21128;50.016;20.002;2023-04-16T05:20:14;98751.31;;;8.05;100.00
34921;BME280;21128;50.016;20.002;2023-04-16T05:22:41;98753.34;;;8.23;100.00
34921;BME280;21128;50.016;20.002;2023-04-16T05:25:08;98757.08;;;8.41;99.77
34921;BME280;21128;50.016;20.002;2023-04-16T05:27:35;98755.19;;;8.53;98.37
34921;BME280;21128;50.016;20.002;2023-04-16T05:30:03;98759.26;;;8.66;98.34
34921;BME280;21128;50.016;20.002;2023-04-16T05:32:31;98767.98;;;8.77;97.17
34921;BME280;21128;50.016;20.002;2023-04-16T05:34:57;98761.33;;;8.72;95.87
34921;BME280;21128;50.016;20.002;2023-04-16T05:37:24;98749.88;;;8.73;94.38
34921;BME280;21128;50.016;20.002;2023-04-16T05:39:51;98751.56;;;8.74;94.81
34921;BME280;21128;50.016;20.002;2023-04-16T05:42:18;98755.05;;;8.85;94.80
34921;BME280;21128;50.016;20.002;2023-04-16T05:44:45;98755.61;;;8.98;94.62
34921;BME280;21128;50.016;20.002;2023-04-16T05:47:12;98765.43;;;9.06;92.96
34921;BME280;21128;50.016;20.002;2023-04-16T05:49:39;98766.98;;;9.08;91.94
34921;BME280;21128;50.016;20.002;2023-04-16T05:52:06;98758.55;;;9.14;91.54
34921;BME280;21128;50.016;20.002;2023-04-16T05:54:33;98766.44;;;9.24;90.84
34921;BME280;21128;50.016;20.002;2023-04-16T05:57:00;98773.77;;;9.30;90.64
34921;BME280;21128;50.016;20.002;2023-04-16T05:59:27;98771.83;;;9.32;88.85
34921;BME280;21128;50.016;20.002;2023-04-16T06:01:56;98774.05;;;9.27;88.76
34921;BME280;21128;50.016;20.002;2023-04-16T06:04:23;98773.48;;;9.33;88.94
34921;BME280;21128;50.016;20.002;2023-04-16T06:06:50;98774.74;;;9.39;88.67
34921;BME280;21128;50.016;20.002;2023-04-16T06:09:17;98774.89;;;9.47;87.99
34921;BME280;21128;50.016;20.002;2023-04-16T06:11:44;98772.70;;;9.52;87.77
34921;BME280;21128;50.016;20.002;2023-04-16T06:14:11;98783.73;;;9.55;87.62
34921;BME280;21128;50.016;20.002;2023-04-16T06:16:38;98776.44;;;9.59;87.15
34921;BME280;21128;50.016;20.002;2023-04-16T06:19:06;98772.56;;;9.63;86.51
34921;BME280;21128;50.016;20.002;2023-04-16T06:21:33;98777.12;;;9.51;85.36
34921;BME280;21128;50.016;20.002;2023-04-16T06:24:00;98786.89;;;9.40;85.53
34921;BME280;21128;50.016;20.002;2023-04-16T06:26:27;98789.22;;;9.33;85.15
34921;BME280;21128;50.016;20.002;2023-04-16T06:28:54;98804.28;;;9.41;85.84
34921;BME280;21128;50.016;20.002;2023-04-16T06:31:21;98790.09;;;9.43;85.95
34921;BME280;21128;50.016;20.002;2023-04-16T06:33:48;98803.21;;;9.53;85.76
34921;BME280;21128;50.016;20.002;2023-04-16T06:36:15;98805.55;;;9.56;85.58
34921;BME280;21128;50.016;20.002;2023-04-16T06:38:42;98801.27;;;9.55;85.33
34921;BME280;21128;50.016;20.002;2023-04-16T06:41:09;98805.83;;;9.53;85.11
34921;BME280;21128;50.016;20.002;2023-04-16T06:43:36;98806.13;;;9.59;85.85
34921;BME280;21128;50.016;20.002;2023-04-16T06:46:03;98805.84;;;9.72;85.78
34921;BME280;21128;50.016;20.002;2023-04-16T06:48:30;98808.89;;;9.87;85.70
34921;BME280;21128;50.016;20.002;2023-04-16T06:50:57;98811.66;;;9.85;85.38
34921;BME280;21128;50.016;20.002;2023-04-16T06:53:24;98816.34;;;9.82;84.49
34921;BME280;21128;50.016;20.002;2023-04-16T06:55:51;98805.30;;;9.78;84.87
34921;BME280;21128;50.016;20.002;2023-04-16T06:58:18;98813.45;;;9.85;84.56
34921;BME280;21128;50.016;20.002;2023-04-16T07:00:45;98806.52;;;9.74;84.40
34921;BME280;21128;50.016;20.002;2023-04-16T07:03:12;98813.31;;;9.67;84.73
34921;BME280;21128;50.016;20.002;2023-04-16T07:05:39;98816.88;;;9.66;85.07
34921;BME280;21128;50.016;20.002;2023-04-16T07:08:06;98815.36;;;9.64;85.81
34921;BME280;21128;50.016;20.002;2023-04-16T07:10:33;98822.27;;;9.65;86.02
34921;BME280;21128;50.016;20.002;2023-04-16T07:13:00;98824.06;;;9.64;86.10
34921;BME280;21128;50.016;20.002;2023-04-16T07:15:27;98813.72;;;9.72;86.34
34921;BME280;21128;50.016;20.002;2023-04-16T07:17:54;98821.58;;;9.92;86.37
34921;BME280;21128;50.016;20.002;2023-04-16T07:20:21;98822.69;;;9.99;86.35
34921;BME280;21128;50.016;20.002;2023-04-16T07:22:48;98817.16;;;10.21;86.15
34921;BME280;21128;50.016;20.002;2023-04-16T07:25:15;98831.25;;;10.39;86.04
34921;BME280;21128;50.016;20.002;2023-04-16T07:27:42;98829.31;;;10.51;85.33
34921;BME280;21128;50.016;20.002;2023-04-16T07:30:09;98832.74;;;10.61;84.98
34921;BME280;21128;50.016;20.002;2023-04-16T07:32:37;98830.50;;;10.66;84.13
34921;BME280;21128;50.016;20.002;2023-04-16T07:35:04;98832.41;;;10.74;84.12
34921;BME280;21128;50.016;20.002;2023-04-16T07:37:31;98838.34;;;10.76;82.61
34921;BME280;21128;50.016;20.002;2023-04-16T07:39:58;98842.17;;;10.91;83.62
34921;BME280;21128;50.016;20.002;2023-04-16T07:42:26;98845.17;;;11.06;82.56
34921;BME280;21128;50.016;20.002;2023-04-16T07:44:54;98846.20;;;11.23;82.91
34921;BME280;21128;50.016;20.002;2023-04-16T07:47:21;98845.81;;;11.45;81.95
34921;BME280;21128;50.016;20.002;2023-04-16T07:49:52;98856.64;;;11.60;81.85
34921;BME280;21128;50.016;20.002;2023-04-16T07:52:19;98855.59;;;11.80;82.03
34921;BME280;21128;50.016;20.002;2023-04-16T07:54:46;98858.15;;;12.08;81.38
34921;BME280;21128;50.016;20.002;2023-04-16T07:57:13;98859.12;;;12.25;81.69
34921;BME280;21128;50.016;20.002;2023-04-16T07:59:42;98862.87;;;12.40;80.50
34921;BME280;21128;50.016;20.002;2023-04-16T08:02:13;98857.34;;;12.51;79.44
34921;BME280;21128;50.016;20.002;2023-04-16T08:04:41;98865.15;;;12.61;78.37
34921;BME280;21128;50.016;20.002;2023-04-16T08:07:08;98858.23;;;12.60;77.11
34921;BME280;21128;50.016;20.002;2023-04-16T08:09:35;98864.03;;;12.63;76.55
34921;BME280;21128;50.016;20.002;2023-04-16T08:12:02;98873.05;;;12.61;76.50
34921;BME280;21128;50.016;20.002;2023-04-16T08:14:29;98868.16;;;12.66;76.37
34921;BME280;21128;50.016;20.002;2023-04-16T08:16:56;98866.95;;;12.60;75.23
34921;BME280;21128;50.016;20.002;2023-04-16T08:19:23;98870.23;;;12.54;74.52
34921;BME280;21128;50.016;20.002;2023-04-16T08:21:50;98875.59;;;12.45;73.59
34921;BME280;21128;50.016;20.002;2023-04-16T08:24:17;98864.27;;;12.52;74.86
34921;BME280;21128;50.016;20.002;2023-04-16T08:26:44;98873.97;;;12.70;73.71
34921;BME280;21128;50.016;20.002;2023-04-16T08:29:11;98864.80;;;12.82;73.79
34921;BME280;21128;50.016;20.002;2023-04-16T08:31:39;98873.91;;;12.87;72.04
34921;BME280;21128;50.016;20.002;2023-04-16T08:34:07;98874.97;;;13.03;73.60
34921;BME280;21128;50.016;20.002;2023-04-16T08:36:34;98872.08;;;13.14;72.58
34921;BME280;21128;50.016;20.002;2023-04-16T08:39:01;98865.22;;;13.21;72.69
34921;BME280;21128;50.016;20.002;2023-04-16T08:41:31;98871.40;;;13.38;71.89
34921;BME280;21128;50.016;20.002;2023-04-16T08:44:08;98873.95;;;13.64;73.09
34921;BME280;21128;50.016;20.002;2023-04-16T08:46:36;98872.87;;;13.99;72.10
34921;BME280;21128;50.016;20.002;2023-04-16T08:49:05;98879.33;;;14.21;71.08
34921;BME280;21128;50.016;20.002;2023-04-16T08:51:35;98878.51;;;14.36;69.81
34921;BME280;21128;50.016;20.002;2023-04-16T08:54:08;98876.58;;;14.47;69.72
34921;BME280;21128;50.016;20.002;2023-04-16T08:56:38;98883.64;;;14.71;69.56
34921;BME280;21128;50.016;20.002;2023-04-16T08:59:08;98875.86;;;14.85;67.82
34921;BME280;21128;50.016;20.002;2023-04-16T09:01:35;98886.60;;;14.92;67.73
34921;BME280;21128;50.016;20.002;2023-04-16T09:04:05;98878.97;;;15.05;66.14
34921;BME280;21128;50.016;20.002;2023-04-16T09:06:33;98874.13;;;15.17;66.69
34921;BME280;21128;50.016;20.002;2023-04-16T09:09:01;98889.31;;;15.31;64.07
34921;BME280;21128;50.016;20.002;2023-04-16T09:11:30;98884.45;;;15.43;66.28
34921;BME280;21128;50.016;20.002;2023-04-16T09:13:59;98884.02;;;15.70;65.73
34921;BME280;21128;50.016;20.002;2023-04-16T09:16:26;98883.66;;;16.04;65.88
34921;BME280;21128;50.016;20.002;2023-04-16T09:18:56;98882.19;;;16.02;63.67
34921;BME280;21128;50.016;20.002;2023-04-16T09:21:23;98880.13;;;16.12;63.74
34921;BME280;21128;50.016;20.002;2023-04-16T09:23:52;98878.12;;;16.37;62.13
34921;BME280;21128;50.016;20.002;2023-04-16T09:26:19;98885.55;;;16.42;61.71
34921;BME280;21128;50.016;20.002;2023-04-16T09:28:48;98882.77;;;16.58;59.98
34921;BME280;21128;50.016;20.002;2023-04-16T09:31:18;98883.92;;;16.55;59.57
34921;BME280;21128;50.016;20.002;2023-04-16T09:34:05;98884.73;;;16.41;57.53
34921;BME280;21128;50.016;20.002;2023-04-16T09:36:33;98877.66;;;16.11;58.34
34921;BME280;21128;50.016;20.002;2023-04-16T09:39:01;98880.31;;;16.11;59.33
34921;BME280;21128;50.016;20.002;2023-04-16T09:41:31;98879.06;;;16.44;59.78
34921;BME280;21128;50.016;20.002;2023-04-16T09:44:03;98876.41;;;16.44;57.37
34921;BME280;21128;50.016;20.002;2023-04-16T09:46:33;98888.95;;;16.04;56.32
34921;BME280;21128;50.016;20.002;2023-04-16T09:49:07;98880.73;;;15.60;56.42
34921;BME280;21128;50.016;20.002;2023-04-16T09:51:36;98890.36;;;15.14;56.02
34921;BME280;21128;50.016;20.002;2023-04-16T09:54:04;98889.75;;;14.79;55.82
34921;BME280;21128;50.016;20.002;2023-04-16T09:56:32;98881.35;;;14.59;56.49
34921;BME280;21128;50.016;20.002;2023-04-16T09:58:59;98886.81;;;14.50;57.03
34921;BME280;21128;50.016;20.002;2023-04-16T10:01:26;98889.08;;;14.45;57.16
34921;BME280;21128;50.016;20.002;2023-04-16T10:03:54;98890.45;;;14.49;57.75
34921;BME280;21128;50.016;20.002;2023-04-16T10:06:22;98890.94;;;14.52;57.83
34921;BME280;21128;50.016;20.002;2023-04-16T10:08:52;98889.42;;;14.42;57.30
34921;BME280;21128;50.016;20.002;2023-04-16T10:11:23;98885.95;;;14.41;57.45
34921;BME280;21128;50.016;20.002;2023-04-16T10:13:50;98882.80;;;14.37;57.41
34921;BME280;21128;50.016;20.002;2023-04-16T10:16:17;98879.22;;;14.55;58.29
34921;BME280;21128;50.016;20.002;2023-04-16T10:18:45;98888.58;;;14.98;58.26
34921;BME280;21128;50.016;20.002;2023-04-16T10:21:13;98885.14;;;15.37;57.74
34921;BME280;21128;50.016;20.002;2023-04-16T10:23:42;98884.98;;;15.78;57.68
34921;BME280;21128;50.016;20.002;2023-04-16T10:26:09;98877.66;;;16.33;56.75
34921;BME280;21128;50.016;20.002;2023-04-16T10:28:36;98870.55;;;16.72;56.01
34921;BME280;21128;50.016;20.002;2023-04-16T10:31:06;98882.58;;;16.82;54.48
34921;BME280;21128;50.016;20.002;2023-04-16T10:33:35;98882.04;;;17.02;54.58
34921;BME280;21128;50.016;20.002;2023-04-16T10:36:09;98885.23;;;16.97;53.25
34921;BME280;21128;50.016;20.002;2023-04-16T10:38:37;98875.09;;;17.01;54.13
34921;BME280;21128;50.016;20.002;2023-04-16T10:41:05;98877.91;;;17.14;52.92
34921;BME280;21128;50.016;20.002;2023-04-16T10:43:45;98877.47;;;17.10;53.25
34921;BME280;21128;50.016;20.002;2023-04-16T10:48:45;98878.92;;;17.13;52.78
34921;BME280;21128;50.016;20.002;2023-04-16T10:51:29;98870.94;;;17.57;52.17
34921;BME280;21128;50.016;20.002;2023-04-16T10:56:38;98883.01;;;18.11;50.32
34921;BME280;21128;50.016;20.002;2023-04-16T10:59:06;98881.80;;;18.13;50.18
34921;BME280;21128;50.016;20.002;2023-04-16T11:01:35;98880.78;;;18.14;50.26
34921;BME280;21128;50.016;20.002;2023-04-16T11:07:34;98883.52;;;18.21;49.65
34921;BME280;21128;50.016;20.002;2023-04-16T11:10:00;98892.47;;;17.98;48.98
34921;BME280;21128;50.016;20.002;2023-04-16T11:12:32;98886.56;;;17.82;49.17
34921;BME280;21128;50.016;20.002;2023-04-16T11:15:02;98888.58;;;17.65;49.54
34921;BME280;21128;50.016;20.002;2023-04-16T11:17:38;98888.87;;;17.55;48.48
34921;BME280;21128;50.016;20.002;2023-04-16T11:20:17;98897.70;;;17.41;49.28
34921;BME280;21128;50.016;20.002;2023-04-16T11:22:44;98887.36;;;17.16;48.19
34921;BME280;21128;50.016;20.002;2023-04-16T11:25:12;98891.83;;;17.01;48.71
34921;BME280;21128;50.016;20.002;2023-04-16T11:27:39;98888.16;;;17.32;48.25
34921;BME280;21128;50.016;20.002;2023-04-16T11:30:07;98894.56;;;17.67;48.67
34921;BME280;21128;50.016;20.002;2023-04-16T11:32:37;98889.06;;;17.83;48.88
34921;BME280;21128;50.016;20.002;2023-04-16T11:35:16;98894.62;;;17.88;48.05
34921;BME280;21128;50.016;20.002;2023-04-16T11:37:44;98892.16;;;17.87;47.86
34921;BME280;21128;50.016;20.002;2023-04-16T11:40:12;98897.30;;;17.73;48.03
34921;BME280;21128;50.016;20.002;2023-04-16T11:42:40;98893.08;;;17.64;48.47
34921;BME280;21128;50.016;20.002;2023-04-16T11:45:09;98894.28;;;17.62;48.45
34921;BME280;21128;50.016;20.002;2023-04-16T11:47:51;98892.72;;;17.67;47.59
34921;BME280;21128;50.016;20.002;2023-04-16T11:50:21;98883.47;;;17.78;47.65
34921;BME280;21128;50.016;20.002;2023-04-16T11:52:50;98892.47;;;17.98;47.99
34921;BME280;21128;50.016;20.002;2023-04-16T11:55:18;98890.16;;;18.10;47.48
34921;BME280;21128;50.016;20.002;2023-04-16T11:57:45;98887.19;;;18.20;47.21
34921;BME280;21128;50.016;20.002;2023-04-16T12:00:13;98880.30;;;18.25;47.00
34921;BME280;21128;50.016;20.002;2023-04-16T12:02:51;98891.56;;;18.27;46.60
34921;BME280;21128;50.016;20.002;2023-04-16T12:05:29;98885.02;;;18.73;46.81
34921;BME280;21128;50.016;20.002;2023-04-16T12:07:58;98880.31;;;19.37;46.53
34921;BME280;21128;50.016;20.002;2023-04-16T12:10:28;98876.22;;;19.76;45.81
34921;BME280;21128;50.016;20.002;2023-04-16T12:13:15;98879.95;;;19.95;43.61
34921;BME280;21128;50.016;20.002;2023-04-16T12:15:53;98874.36;;;19.83;43.40
34921;BME280;21128;50.016;20.002;2023-04-16T12:18:23;98881.36;;;19.91;41.65
34921;BME280;21128;50.016;20.002;2023-04-16T12:20:52;98872.70;;;19.76;41.86
34921;BME280;21128;50.016;20.002;2023-04-16T12:23:31;98877.62;;;19.72;42.48
34921;BME280;21128;50.016;20.002;2023-04-16T12:26:06;98871.88;;;19.68;42.38
34921;BME280;21128;50.016;20.002;2023-04-16T12:28:36;98868.56;;;19.60;42.94
34921;BME280;21128;50.016;20.002;2023-04-16T12:31:04;98864.87;;;19.61;42.86
34921;BME280;21128;50.016;20.002;2023-04-16T12:33:31;98863.31;;;19.86;42.86
34921;BME280;21128;50.016;20.002;2023-04-16T12:35:59;98861.69;;;19.99;42.30
34921;BME280;21128;50.016;20.002;2023-04-16T12:38:27;98856.59;;;20.17;42.45
34921;BME280;21128;50.016;20.002;2023-04-16T12:40:54;98850.05;;;20.39;42.47
34921;BME280;21128;50.016;20.002;2023-04-16T12:43:23;98848.20;;;20.40;41.04
34921;BME280;21128;50.016;20.002;2023-04-16T12:45:50;98857.16;;;19.92;40.79
34921;BME280;21128;50.016;20.002;2023-04-16T12:48:16;98853.39;;;19.67;40.45
34921;BME280;21128;50.016;20.002;2023-04-16T12:50:43;98846.66;;;19.71;41.15
34921;BME280;21128;50.016;20.002;2023-04-16T12:53:10;98856.20;;;19.52;40.91
34921;BME280;21128;50.016;20.002;2023-04-16T12:55:37;98853.59;;;19.24;41.30
34921;BME280;21128;50.016;20.002;2023-04-16T12:58:04;98858.72;;;18.91;41.68
34921;BME280;21128;50.016;20.002;2023-04-16T13:00:32;98854.20;;;18.64;40.95
34921;BME280;21128;50.016;20.002;2023-04-16T13:02:59;98856.59;;;18.31;41.33
34921;BME280;21128;50.016;20.002;2023-04-16T13:05:26;98854.43;;;17.77;42.27